createdAt,value
2022-10-17T00:00:02.755Z,17.13
2022-10-17T00:01:02.785Z,17.14
2022-10-17T00:02:01.685Z,17.19
2022-10-17T00:03:02.273Z,17.23
2022-10-17T00:04:02.113Z,17.28
2022-10-17T00:05:01.921Z,17.32
2022-10-17T00:06:01.837Z,17.36
2022-10-17T00:07:02.339Z,17.38
2022-10-17T00:08:02.868Z,17.40
2022-10-17T00:09:02.687Z,17.43
2022-10-17T00:10:02.477Z,17.48
2022-10-17T00:11:02.850Z,17.50
2022-10-17T00:12:01.856Z,17.52
2022-10-17T00:13:01.669Z,17.54
2022-10-17T00:14:02.109Z,17.57
2022-10-17T00:15:02.126Z,17.58
2022-10-17T00:16:02.161Z,17.63
2022-10-17T00:17:02.065Z,17.65
2022-10-17T00:18:02.578Z,17.69
2022-10-17T00:19:02.431Z,17.71
2022-10-17T00:20:02.267Z,17.70
2022-10-17T00:21:02.229Z,17.72
2022-10-17T00:22:02.137Z,17.74
2022-10-17T00:23:02.659Z,17.76
2022-10-17T00:24:02.262Z,17.77
2022-10-17T00:25:02.170Z,17.75
2022-10-17T00:26:02.072Z,17.76
2022-10-17T00:27:02.866Z,17.72
2022-10-17T00:28:02.767Z,17.72
2022-10-17T00:29:02.708Z,17.72
2022-10-17T00:30:02.975Z,17.75
2022-10-17T00:31:02.786Z,17.77
2022-10-17T00:32:02.689Z,17.78
2022-10-17T00:33:03.002Z,17.78
2022-10-17T00:34:02.990Z,17.81
2022-10-17T00:35:02.545Z,17.83
2022-10-17T00:36:02.797Z,17.84
2022-10-17T00:37:02.389Z,17.88
2022-10-17T00:38:02.404Z,17.91
2022-10-17T00:39:02.904Z,17.94
2022-10-17T00:40:02.616Z,17.95
2022-10-17T00:41:02.483Z,17.94
2022-10-17T00:42:02.160Z,17.95
2022-10-17T00:43:02.052Z,17.99
2022-10-17T00:44:02.259Z,17.99
2022-10-17T00:45:02.413Z,18.01
2022-10-17T00:46:02.286Z,18.02
2022-10-17T00:47:02.353Z,18.04
2022-10-17T00:48:02.125Z,18.04
2022-10-17T00:49:02.018Z,18.02
2022-10-17T00:51:02.170Z,18.04
2022-10-17T00:52:02.592Z,18.05
2022-10-17T00:53:02.484Z,18.05
2022-10-17T00:54:02.914Z,18.04
2022-10-17T00:55:02.773Z,18.05
2022-10-17T00:56:02.488Z,18.04
2022-10-17T00:57:02.127Z,18.05
2022-10-17T00:58:02.133Z,18.04
2022-10-17T00:59:02.222Z,18.02
2022-10-17T01:00:02.082Z,18.00
2022-10-17T01:01:02.158Z,17.98
2022-10-17T01:02:02.741Z,17.98
2022-10-17T01:03:02.619Z,17.98
2022-10-17T01:04:03.120Z,17.97
2022-10-17T01:05:02.691Z,17.97
2022-10-17T01:06:02.656Z,17.98
2022-10-17T01:07:02.332Z,17.96
2022-10-17T01:08:02.326Z,17.96
2022-10-17T01:09:02.567Z,17.93
2022-10-17T01:10:02.188Z,17.91
2022-10-17T01:11:02.185Z,17.89
2022-10-17T01:12:02.709Z,17.87
2022-10-17T01:13:02.671Z,17.89
2022-10-17T01:14:02.746Z,17.88
2022-10-17T01:15:02.560Z,17.88
2022-10-17T01:16:02.863Z,17.89
2022-10-17T01:17:02.492Z,17.89
2022-10-17T01:18:02.771Z,17.88
2022-10-17T01:19:02.271Z,17.87
2022-10-17T01:20:02.690Z,17.89
2022-10-17T01:21:02.318Z,17.91
2022-10-17T01:22:02.715Z,17.92
2022-10-17T01:23:02.618Z,17.93
2022-10-17T01:24:02.896Z,17.94
2022-10-17T01:25:02.878Z,17.95
2022-10-17T01:26:02.682Z,17.96
2022-10-17T01:27:03.412Z,17.95
2022-10-17T01:28:03.065Z,17.94
2022-10-17T01:29:03.040Z,17.92
2022-10-17T01:30:02.911Z,17.91
2022-10-17T01:31:02.929Z,17.93
2022-10-17T01:32:02.306Z,17.92
2022-10-17T01:33:02.203Z,17.93
2022-10-17T01:34:02.747Z,17.90
2022-10-17T01:35:02.309Z,17.92
2022-10-17T01:36:05.670Z,17.95
2022-10-17T01:37:02.829Z,17.94
2022-10-17T01:38:02.649Z,17.93
2022-10-17T01:39:03.078Z,17.91
2022-10-17T01:40:02.550Z,17.89
2022-10-17T01:41:03.063Z,17.89
2022-10-17T01:42:02.529Z,17.88
2022-10-17T01:43:02.743Z,17.89
2022-10-17T01:44:02.238Z,17.89
2022-10-17T01:45:02.489Z,17.87
2022-10-17T01:46:02.306Z,17.87
2022-10-17T01:47:02.902Z,17.87
2022-10-17T01:48:02.779Z,17.84
2022-10-17T01:49:02.679Z,17.85
2022-10-17T01:50:02.452Z,17.85
2022-10-17T01:51:03.054Z,17.86
2022-10-17T01:52:03.399Z,17.85
2022-10-17T01:53:02.960Z,17.85
2022-10-17T01:54:03.464Z,17.86
2022-10-17T01:55:03.093Z,17.85
2022-10-17T01:56:03.167Z,17.85
2022-10-17T01:57:02.834Z,17.85
2022-10-17T01:58:02.694Z,17.85
2022-10-17T01:59:02.595Z,17.86
2022-10-17T02:00:02.785Z,17.87
2022-10-17T02:01:02.768Z,17.90
2022-10-17T02:02:02.426Z,17.87
2022-10-17T02:03:02.056Z,17.87
2022-10-17T02:04:01.964Z,17.89
2022-10-17T02:06:02.455Z,17.86
2022-10-17T02:07:02.698Z,17.88
2022-10-17T02:08:02.501Z,17.89
2022-10-17T02:09:02.308Z,17.89
2022-10-17T02:10:02.129Z,17.90
2022-10-17T02:11:02.621Z,17.89
2022-10-17T02:12:02.673Z,17.88
2022-10-17T02:13:02.983Z,17.86
2022-10-17T02:14:03.193Z,17.82
2022-10-17T02:15:02.661Z,17.82
2022-10-17T02:16:02.604Z,17.82
2022-10-17T02:17:02.874Z,17.83
2022-10-17T02:18:02.469Z,17.85
2022-10-17T02:19:02.378Z,17.84
2022-10-17T02:20:02.268Z,17.84
2022-10-17T02:21:02.636Z,17.85
2022-10-17T02:22:03.141Z,17.85
2022-10-17T02:23:03.184Z,17.84
2022-10-17T02:24:02.687Z,17.83
2022-10-17T02:25:02.973Z,17.84
2022-10-17T02:26:02.828Z,17.80
2022-10-17T02:27:01.843Z,17.82
2022-10-17T02:28:01.928Z,17.76
2022-10-17T02:29:02.374Z,17.71
2022-10-17T02:30:01.911Z,17.70
2022-10-17T02:31:02.326Z,17.71
2022-10-17T02:32:01.943Z,17.69
2022-10-17T02:33:01.917Z,17.70
2022-10-17T02:34:01.956Z,17.70
2022-10-17T02:35:02.129Z,17.68
2022-10-17T02:36:02.049Z,17.68
2022-10-17T02:37:02.577Z,17.69
2022-10-17T02:38:02.542Z,17.69
2022-10-17T02:39:03.107Z,17.69
2022-10-17T02:40:02.894Z,17.68
2022-10-17T02:41:02.827Z,17.62
2022-10-17T02:42:03.176Z,17.62
2022-10-17T02:43:03.006Z,17.64
2022-10-17T02:44:02.884Z,17.67
2022-10-17T02:45:02.629Z,17.69
2022-10-17T02:46:03.201Z,17.69
2022-10-17T02:47:03.121Z,17.71
2022-10-17T02:48:02.677Z,17.74
2022-10-17T02:49:02.896Z,17.75
2022-10-17T02:50:03.078Z,17.75
2022-10-17T02:51:02.688Z,17.74
2022-10-17T02:52:02.327Z,17.75
2022-10-17T02:53:02.653Z,17.75
2022-10-17T02:54:02.482Z,17.77
2022-10-17T02:55:02.383Z,17.77
2022-10-17T02:56:02.896Z,17.74
2022-10-17T02:57:02.373Z,17.69
2022-10-17T02:58:02.959Z,17.67
2022-10-17T02:59:03.005Z,17.63
2022-10-17T03:00:02.540Z,17.56
2022-10-17T03:01:02.562Z,17.51
2022-10-17T03:02:02.937Z,17.43
2022-10-17T03:03:02.678Z,17.41
2022-10-17T03:04:02.676Z,17.36
2022-10-17T03:05:02.854Z,17.38
2022-10-17T03:06:02.995Z,17.37
2022-10-17T03:07:02.627Z,17.37
2022-10-17T03:08:03.134Z,17.32
2022-10-17T03:09:02.862Z,17.36
2022-10-17T03:10:02.587Z,17.37
2022-10-17T03:11:03.176Z,17.39
2022-10-17T03:12:02.711Z,17.40
2022-10-17T03:13:02.776Z,17.36
2022-10-17T03:14:03.196Z,17.35
2022-10-17T03:15:03.009Z,17.39
2022-10-17T03:16:02.855Z,17.41
2022-10-17T03:17:02.800Z,17.38
2022-10-17T03:18:02.726Z,17.40
2022-10-17T03:19:02.372Z,17.44
2022-10-17T03:20:02.415Z,17.50
2022-10-17T03:21:02.522Z,17.54
2022-10-17T03:22:03.373Z,17.57
2022-10-17T03:23:03.191Z,17.60
2022-10-17T03:24:03.476Z,17.59
2022-10-17T03:25:03.317Z,17.61
2022-10-17T03:26:03.142Z,17.63
2022-10-17T03:27:02.643Z,17.61
2022-10-17T03:28:02.802Z,17.58
2022-10-17T03:29:02.764Z,17.54
2022-10-17T03:30:02.463Z,17.54
2022-10-17T03:31:02.516Z,17.52
2022-10-17T03:32:03.137Z,17.50
2022-10-17T03:33:03.384Z,17.55
2022-10-17T03:34:03.552Z,17.52
2022-10-17T03:35:03.178Z,17.51
2022-10-17T03:36:03.099Z,17.45
2022-10-17T03:37:02.680Z,17.46
2022-10-17T03:38:02.601Z,17.44
2022-10-17T03:39:03.118Z,17.45
2022-10-17T03:40:02.773Z,17.47
2022-10-17T03:41:02.621Z,17.41
2022-10-17T03:42:03.211Z,17.43
2022-10-17T03:43:02.939Z,17.40
2022-10-17T03:44:03.419Z,17.39
2022-10-17T03:45:03.565Z,17.43
2022-10-17T03:46:03.147Z,17.42
2022-10-17T03:47:03.466Z,17.43
2022-10-17T03:48:03.993Z,17.44
2022-10-17T03:49:03.892Z,17.40
2022-10-17T03:50:03.977Z,17.38
2022-10-17T03:51:03.883Z,17.40
2022-10-17T03:52:03.352Z,17.37
2022-10-17T03:53:03.214Z,17.36
2022-10-17T03:54:03.363Z,17.40
2022-10-17T03:55:03.110Z,17.39
2022-10-17T03:56:03.635Z,17.39
2022-10-17T03:57:02.890Z,17.39
2022-10-17T03:58:03.031Z,17.38
2022-10-17T03:59:03.126Z,17.37
2022-10-17T04:00:03.059Z,17.37
2022-10-17T04:01:03.317Z,17.37
2022-10-17T04:02:02.394Z,17.42
2022-10-17T04:03:02.323Z,17.41
2022-10-17T04:04:02.110Z,17.42
2022-10-17T04:05:02.543Z,17.41
2022-10-17T04:06:02.385Z,17.43
2022-10-17T04:07:02.984Z,17.42
2022-10-17T04:08:04.840Z,17.43
2022-10-17T04:09:02.794Z,17.42
2022-10-17T04:10:03.077Z,17.36
2022-10-17T04:11:02.690Z,17.39
2022-10-17T04:12:02.352Z,17.36
2022-10-17T04:13:02.308Z,17.37
2022-10-17T04:14:02.254Z,17.40
2022-10-17T04:15:02.031Z,17.44
2022-10-17T04:16:02.488Z,17.45
2022-10-17T04:17:02.845Z,17.43
2022-10-17T04:18:02.634Z,17.42
2022-10-17T04:19:03.096Z,17.47
2022-10-17T04:20:02.367Z,17.50
2022-10-17T04:21:02.901Z,17.52
2022-10-17T04:22:02.493Z,17.53
2022-10-17T04:23:02.465Z,17.54
2022-10-17T04:24:02.382Z,17.55
2022-10-17T04:25:02.115Z,17.52
2022-10-17T04:26:02.026Z,17.51
2022-10-17T04:27:02.850Z,17.51
2022-10-17T04:28:02.893Z,17.47
2022-10-17T04:29:02.625Z,17.46
2022-10-17T04:30:02.260Z,17.46
2022-10-17T04:31:02.897Z,17.36
2022-10-17T04:32:03.258Z,17.30
2022-10-17T04:33:02.943Z,17.25
2022-10-17T04:34:03.282Z,17.28
2022-10-17T04:35:03.011Z,17.26
2022-10-17T04:36:02.826Z,17.26
2022-10-17T04:37:03.146Z,17.29
2022-10-17T04:38:03.125Z,17.25
2022-10-17T04:39:02.980Z,17.26
2022-10-17T04:40:03.284Z,17.26
2022-10-17T04:41:02.805Z,17.26
2022-10-17T04:42:02.684Z,17.27
2022-10-17T04:43:02.220Z,17.28
2022-10-17T04:44:02.462Z,17.27
2022-10-17T04:45:02.822Z,17.26
2022-10-17T04:46:02.549Z,17.30
2022-10-17T04:47:03.307Z,17.29
2022-10-17T04:48:03.031Z,17.29
2022-10-17T04:49:02.934Z,17.28
2022-10-17T04:50:02.895Z,17.28
2022-10-17T04:51:03.352Z,17.29
2022-10-17T04:52:02.749Z,17.30
2022-10-17T04:53:02.435Z,17.31
2022-10-17T04:54:02.346Z,17.29
2022-10-17T04:55:02.459Z,17.25
2022-10-17T04:56:02.303Z,17.27
2022-10-17T04:57:02.234Z,17.24
2022-10-17T04:58:02.358Z,17.22
2022-10-17T04:59:02.281Z,17.24
2022-10-17T05:00:02.482Z,17.23
2022-10-17T05:01:02.910Z,17.23
2022-10-17T05:02:01.594Z,17.23
2022-10-17T05:03:02.237Z,17.26
2022-10-17T05:04:01.902Z,17.28
2022-10-17T05:05:01.816Z,17.29
2022-10-17T05:06:01.656Z,17.24
2022-10-17T05:07:02.754Z,17.25
2022-10-17T05:08:02.415Z,17.26
2022-10-17T05:09:02.663Z,17.27
2022-10-17T05:10:02.735Z,17.23
2022-10-17T05:11:02.605Z,17.23
2022-10-17T05:12:03.463Z,17.22
2022-10-17T05:13:02.224Z,17.24
2022-10-17T05:14:01.671Z,17.26
2022-10-17T05:15:02.099Z,17.25
2022-10-17T05:16:02.134Z,17.23
2022-10-17T05:17:02.054Z,17.23
2022-10-17T05:18:02.390Z,17.20
2022-10-17T05:19:02.186Z,17.22
2022-10-17T05:20:02.614Z,17.21
2022-10-17T05:21:02.280Z,17.18
2022-10-17T05:22:02.090Z,17.17
2022-10-17T05:23:02.677Z,17.14
2022-10-17T05:24:02.165Z,17.13
2022-10-17T05:25:02.680Z,17.11
2022-10-17T05:26:02.347Z,17.12
2022-10-17T05:27:02.622Z,17.11
2022-10-17T05:28:02.401Z,17.12
2022-10-17T05:29:02.316Z,17.18
2022-10-17T05:30:02.517Z,17.22
2022-10-17T05:31:02.440Z,17.24
2022-10-17T05:33:02.671Z,17.23
2022-10-17T05:34:03.030Z,17.27
2022-10-17T05:35:02.728Z,17.30
2022-10-17T05:36:02.467Z,17.31
2022-10-17T05:37:02.077Z,17.34
2022-10-17T05:38:02.653Z,17.36
2022-10-17T05:39:02.036Z,17.36
2022-10-17T05:40:02.609Z,17.40
2022-10-17T05:41:02.334Z,17.42
2022-10-17T05:42:02.761Z,17.46
2022-10-17T05:43:02.739Z,17.48
2022-10-17T05:44:05.406Z,17.41
2022-10-17T05:45:02.643Z,17.47
2022-10-17T05:46:02.636Z,17.49
2022-10-17T05:47:02.810Z,17.42
2022-10-17T05:48:02.738Z,17.44
2022-10-17T05:49:07.632Z,17.43
2022-10-17T05:50:02.273Z,17.37
2022-10-17T05:51:02.425Z,17.39
2022-10-17T05:52:02.057Z,17.39
2022-10-17T05:53:02.039Z,17.38
2022-10-17T05:54:02.047Z,17.36
2022-10-17T05:55:01.994Z,17.36
2022-10-17T05:56:01.980Z,17.36
2022-10-17T05:57:02.674Z,17.29
2022-10-17T05:58:02.708Z,17.29
2022-10-17T05:59:02.668Z,17.27
2022-10-17T06:00:02.702Z,17.29
2022-10-17T06:01:02.809Z,17.29
2022-10-17T06:02:01.941Z,17.28
2022-10-17T06:03:01.558Z,17.26
2022-10-17T06:04:01.744Z,17.28
2022-10-17T06:05:01.766Z,17.24
2022-10-17T06:06:01.609Z,17.23
2022-10-17T06:07:02.170Z,17.24
2022-10-17T06:08:02.159Z,17.21
2022-10-17T06:09:02.005Z,17.20
2022-10-17T06:10:02.610Z,17.20
2022-10-17T06:11:06.077Z,17.21
2022-10-17T06:12:01.997Z,17.22
2022-10-17T06:13:01.920Z,17.26
2022-10-17T06:14:01.925Z,17.25
2022-10-17T06:15:01.636Z,17.26
2022-10-17T06:16:01.646Z,17.26
2022-10-17T06:17:02.311Z,17.29
2022-10-17T06:18:02.583Z,17.26
2022-10-17T06:19:02.337Z,17.28
2022-10-17T06:20:02.228Z,17.28
2022-10-17T06:21:02.270Z,17.30
2022-10-17T06:22:03.120Z,17.31
2022-10-17T06:23:03.112Z,17.33
2022-10-17T06:24:02.617Z,17.32
2022-10-17T06:25:03.007Z,17.30
2022-10-17T06:26:02.537Z,17.34
2022-10-17T06:27:02.580Z,17.30
2022-10-17T06:28:02.800Z,17.31
2022-10-17T06:29:02.529Z,17.26
2022-10-17T06:30:02.598Z,17.25
2022-10-17T06:31:02.750Z,17.27
2022-10-17T06:32:02.129Z,17.26
2022-10-17T06:33:02.155Z,17.27
2022-10-17T06:34:02.202Z,17.23
2022-10-17T06:35:01.790Z,17.21
2022-10-17T06:36:01.841Z,17.24
2022-10-17T06:37:02.599Z,17.24
2022-10-17T06:38:02.089Z,17.28
2022-10-17T06:39:02.618Z,17.32
2022-10-17T06:40:02.431Z,17.27
2022-10-17T06:41:02.544Z,17.25
2022-10-17T06:42:02.584Z,17.19
2022-10-17T06:43:02.827Z,17.15
2022-10-17T06:44:02.631Z,17.11
2022-10-17T06:45:02.631Z,17.13
2022-10-17T06:46:02.773Z,17.12
2022-10-17T06:47:02.994Z,17.09
2022-10-17T06:48:02.981Z,17.14
2022-10-17T06:49:02.989Z,17.15
2022-10-17T06:50:02.678Z,17.19
2022-10-17T06:51:02.581Z,17.23
2022-10-17T06:52:01.735Z,17.23
2022-10-17T06:53:01.793Z,17.21
2022-10-17T06:54:01.838Z,17.25
2022-10-17T06:56:01.751Z,17.23
2022-10-17T06:57:02.442Z,17.24
2022-10-17T06:58:02.511Z,17.25
2022-10-17T06:59:02.431Z,17.27
2022-10-17T07:00:02.344Z,17.28
2022-10-17T07:01:02.671Z,17.28
2022-10-17T07:02:03.302Z,17.30
2022-10-17T07:03:03.109Z,17.34
2022-10-17T07:04:03.513Z,17.38
2022-10-17T07:05:03.568Z,17.35
2022-10-17T07:06:03.454Z,17.34
2022-10-17T07:07:03.269Z,17.36
2022-10-17T07:08:03.287Z,17.34
2022-10-17T07:09:02.831Z,17.30
2022-10-17T07:10:02.762Z,17.28
2022-10-17T07:11:02.741Z,17.30
2022-10-17T07:12:03.312Z,17.33
2022-10-17T07:13:03.305Z,17.29
2022-10-17T07:14:02.864Z,17.30
2022-10-17T07:15:02.915Z,17.27
2022-10-17T07:16:02.910Z,17.29
2022-10-17T07:17:03.285Z,17.25
2022-10-17T07:18:03.335Z,17.32
2022-10-17T07:19:03.376Z,17.34
2022-10-17T07:20:03.393Z,17.33
2022-10-17T07:21:03.406Z,17.36
2022-10-17T07:22:03.209Z,17.41
2022-10-17T07:23:03.154Z,17.43
2022-10-17T07:24:02.795Z,17.47
2022-10-17T07:25:03.315Z,17.50
2022-10-17T07:26:03.431Z,17.55
2022-10-17T07:27:02.453Z,17.58
2022-10-17T07:28:02.554Z,17.61
2022-10-17T07:29:02.924Z,17.63
2022-10-17T07:30:02.521Z,17.65
2022-10-17T07:31:02.957Z,17.70
2022-10-17T07:32:03.343Z,17.74
2022-10-17T07:33:03.632Z,17.75
2022-10-17T07:34:03.455Z,17.82
2022-10-17T07:35:03.298Z,17.84
2022-10-17T07:36:03.314Z,17.85
2022-10-17T07:37:02.602Z,17.84
2022-10-17T07:38:03.020Z,17.86
2022-10-17T07:39:03.030Z,17.90
2022-10-17T07:40:03.013Z,17.94
2022-10-17T07:41:02.949Z,17.87
2022-10-17T07:42:02.942Z,17.91
2022-10-17T07:43:03.393Z,17.93
2022-10-17T07:44:03.491Z,17.94
2022-10-17T07:45:03.541Z,17.95
2022-10-17T07:46:03.432Z,17.91
2022-10-17T07:47:03.081Z,17.95
2022-10-17T07:48:02.819Z,17.95
2022-10-17T07:49:02.814Z,17.96
2022-10-17T07:50:02.456Z,17.96
2022-10-17T07:51:03.095Z,17.95
2022-10-17T07:52:02.893Z,17.97
2022-10-17T07:53:03.392Z,17.99
2022-10-17T07:54:02.873Z,17.98
2022-10-17T07:55:02.836Z,18.03
2022-10-17T07:56:02.893Z,18.03
2022-10-17T07:57:02.494Z,18.04
2022-10-17T07:58:02.807Z,18.05
2022-10-17T07:59:05.282Z,18.07
2022-10-17T08:00:02.698Z,18.09
2022-10-17T08:02:01.947Z,18.09
2022-10-17T08:03:02.334Z,18.12
2022-10-17T08:04:02.310Z,18.11
2022-10-17T08:05:02.270Z,18.16
2022-10-17T08:06:01.821Z,18.20
2022-10-17T08:07:18.338Z,18.19
2022-10-17T08:08:02.261Z,18.19
2022-10-17T08:09:02.439Z,18.19
2022-10-17T08:10:01.943Z,18.18
2022-10-17T08:11:01.909Z,18.18
2022-10-17T08:12:02.581Z,18.21
2022-10-17T08:13:02.575Z,18.27
2022-10-17T08:14:03.057Z,18.29
2022-10-17T08:15:02.416Z,18.34
2022-10-17T08:16:03.103Z,18.33
2022-10-17T08:17:02.105Z,18.34
2022-10-17T08:18:01.908Z,18.33
2022-10-17T08:19:02.471Z,18.40
2022-10-17T08:20:02.477Z,18.43
2022-10-17T08:21:02.483Z,18.46
2022-10-17T08:22:02.181Z,18.48
2022-10-17T08:23:02.001Z,18.53
2022-10-17T08:24:02.531Z,18.58
2022-10-17T08:25:02.302Z,18.61
2022-10-17T08:26:02.303Z,18.61
2022-10-17T08:27:02.403Z,18.64
2022-10-17T08:28:02.347Z,18.63
2022-10-17T08:29:02.567Z,18.65
2022-10-17T08:30:02.648Z,18.68
2022-10-17T08:31:02.321Z,18.70
2022-10-17T08:32:03.702Z,18.74
2022-10-17T08:33:01.925Z,18.74
2022-10-17T08:34:01.627Z,18.79
2022-10-17T08:35:01.656Z,18.81
2022-10-17T08:36:01.724Z,18.86
2022-10-17T08:37:02.411Z,18.89
2022-10-17T08:38:02.268Z,18.94
2022-10-17T08:39:02.514Z,18.89
2022-10-17T08:40:02.518Z,18.93
2022-10-17T08:41:02.644Z,18.91
2022-10-17T08:42:02.773Z,18.89
2022-10-17T08:43:02.485Z,18.96
2022-10-17T08:44:02.656Z,18.98
2022-10-17T08:45:02.756Z,18.97
2022-10-17T08:46:02.661Z,18.99
2022-10-17T08:47:01.774Z,19.02
2022-10-17T08:48:02.187Z,19.03
2022-10-17T08:49:01.765Z,19.02
2022-10-17T08:50:02.130Z,18.99
2022-10-17T08:51:01.779Z,18.97
2022-10-17T08:52:02.504Z,18.99
2022-10-17T08:53:02.615Z,18.99
2022-10-17T08:54:02.616Z,19.02
2022-10-17T08:55:02.180Z,19.04
2022-10-17T08:56:02.359Z,19.05
2022-10-17T08:57:02.797Z,19.08
2022-10-17T08:58:02.866Z,19.14
2022-10-17T08:59:02.319Z,19.14
2022-10-17T09:00:02.941Z,19.20
2022-10-17T09:01:02.797Z,19.19
2022-10-17T09:02:02.590Z,19.23
2022-10-17T09:03:02.604Z,19.23
2022-10-17T09:04:02.785Z,19.30
2022-10-17T09:05:02.843Z,19.33
2022-10-17T09:06:02.673Z,19.34
2022-10-17T09:07:02.576Z,19.39
2022-10-17T09:08:02.587Z,19.42
2022-10-17T09:09:02.708Z,19.45
2022-10-17T09:10:02.403Z,19.52
2022-10-17T09:11:02.453Z,19.49
2022-10-17T09:12:02.212Z,19.49
2022-10-17T09:13:07.598Z,19.48
2022-10-17T09:14:02.016Z,19.52
2022-10-17T09:15:01.957Z,19.57
2022-10-17T09:16:02.018Z,19.52
2022-10-17T09:17:02.617Z,19.54
2022-10-17T09:18:02.556Z,19.59
2022-10-17T09:19:02.759Z,19.62
2022-10-17T09:20:02.514Z,19.59
2022-10-17T09:21:02.549Z,19.65
2022-10-17T09:22:02.757Z,19.69
2022-10-17T09:23:02.917Z,19.72
2022-10-17T09:24:09.144Z,19.73
2022-10-17T09:25:02.679Z,19.73
2022-10-17T09:26:02.738Z,19.73
2022-10-17T09:27:02.949Z,19.79
2022-10-17T09:28:03.105Z,19.85
2022-10-17T09:29:02.586Z,19.93
2022-10-17T09:30:02.915Z,19.96
2022-10-17T09:31:03.059Z,20.04
2022-10-17T09:32:02.619Z,20.09
2022-10-17T09:33:02.496Z,20.15
2022-10-17T09:34:02.223Z,20.22
2022-10-17T09:35:02.149Z,20.31
2022-10-17T09:36:02.292Z,20.37
2022-10-17T09:37:03.181Z,20.45
2022-10-17T09:38:02.906Z,20.52
2022-10-17T09:39:02.915Z,20.60
2022-10-17T09:40:02.921Z,20.65
2022-10-17T09:41:02.891Z,20.75
2022-10-17T09:42:02.599Z,20.84
2022-10-17T09:43:02.610Z,20.89
2022-10-17T09:44:02.605Z,20.89
2022-10-17T09:45:02.696Z,20.93
2022-10-17T09:46:02.060Z,21.02
2022-10-17T09:47:02.675Z,21.08
2022-10-17T09:48:02.494Z,21.12
2022-10-17T09:50:02.230Z,21.12
2022-10-17T09:51:14.721Z,21.16
2022-10-17T09:52:03.324Z,21.21
2022-10-17T09:53:02.957Z,21.28
2022-10-17T09:54:02.966Z,21.30
2022-10-17T09:55:02.872Z,21.37
2022-10-17T09:56:02.868Z,21.44
2022-10-17T09:57:02.653Z,21.49
2022-10-17T09:58:02.460Z,21.54
2022-10-17T09:59:02.535Z,21.56
2022-10-17T10:00:02.718Z,21.56
2022-10-17T10:01:02.596Z,21.59
2022-10-17T10:02:03.199Z,21.62
2022-10-17T10:03:02.640Z,21.64
2022-10-17T10:04:02.998Z,21.65
2022-10-17T10:05:04.631Z,21.68
2022-10-17T10:06:02.958Z,21.72
2022-10-17T10:07:03.686Z,21.77
2022-10-17T10:08:03.790Z,21.80
2022-10-17T10:09:03.274Z,21.86
2022-10-17T10:10:03.333Z,21.91
2022-10-17T10:11:03.557Z,21.95
2022-10-17T10:12:02.707Z,21.99
2022-10-17T10:13:03.243Z,22.01
2022-10-17T10:14:03.080Z,22.01
2022-10-17T10:15:03.082Z,22.07
2022-10-17T10:16:03.264Z,22.11
2022-10-17T10:17:03.074Z,22.17
2022-10-17T10:18:03.113Z,22.21
2022-10-17T10:19:05.855Z,22.20
2022-10-17T10:20:03.512Z,22.24
2022-10-17T10:21:03.439Z,22.30
2022-10-17T10:22:03.438Z,22.30
2022-10-17T10:23:03.453Z,22.35
2022-10-17T10:24:04.059Z,22.36
2022-10-17T10:25:03.468Z,22.39
2022-10-17T10:26:03.564Z,22.44
2022-10-17T10:27:03.688Z,22.46
2022-10-17T10:28:02.732Z,22.47
2022-10-17T10:29:02.880Z,22.45
2022-10-17T10:30:03.055Z,22.44
2022-10-17T10:31:03.039Z,22.49
2022-10-17T10:33:03.377Z,22.45
2022-10-17T10:34:03.495Z,22.46
2022-10-17T10:35:03.060Z,22.52
2022-10-17T10:36:03.174Z,22.54
2022-10-17T10:37:03.395Z,22.57
2022-10-17T10:38:03.113Z,22.62
2022-10-17T10:39:04.633Z,22.65
2022-10-17T10:40:02.687Z,22.67
2022-10-17T10:41:03.149Z,22.70
2022-10-17T10:42:02.942Z,22.70
2022-10-17T10:43:05.644Z,22.76
2022-10-17T10:44:02.741Z,22.80
2022-10-17T10:45:02.901Z,22.84
2022-10-17T10:46:02.848Z,22.84
2022-10-17T10:47:02.702Z,22.88
2022-10-17T10:48:03.515Z,22.89
2022-10-17T10:49:03.353Z,22.92
2022-10-17T10:50:03.669Z,22.95
2022-10-17T10:51:03.511Z,22.99
2022-10-17T10:52:03.564Z,23.06
2022-10-17T10:53:03.674Z,23.10
2022-10-17T10:54:03.647Z,23.14
2022-10-17T10:55:03.670Z,23.13
2022-10-17T10:56:03.346Z,23.18
2022-10-17T10:57:03.466Z,23.19
2022-10-17T10:58:03.365Z,23.23
2022-10-17T10:59:03.486Z,23.26
2022-10-17T11:00:03.324Z,23.30
2022-10-17T11:01:03.579Z,23.21
2022-10-17T11:02:03.389Z,23.20
2022-10-17T11:03:03.931Z,23.22
2022-10-17T11:04:03.024Z,23.20
2022-10-17T11:05:03.289Z,23.23
2022-10-17T11:06:03.343Z,23.23
2022-10-17T11:07:03.302Z,23.25
2022-10-17T11:08:02.975Z,23.21
2022-10-17T11:09:02.787Z,23.25
2022-10-17T11:10:02.815Z,23.27
2022-10-17T11:11:02.830Z,23.29
2022-10-17T11:12:03.202Z,23.31
2022-10-17T11:13:02.962Z,23.34
2022-10-17T11:14:03.211Z,23.37
2022-10-17T11:15:03.106Z,23.39
2022-10-17T11:16:03.145Z,23.42
2022-10-17T11:17:03.229Z,23.44
2022-10-17T11:18:02.805Z,23.37
2022-10-17T11:19:02.898Z,23.41
2022-10-17T11:20:02.987Z,23.40
2022-10-17T11:21:03.260Z,23.39
2022-10-17T11:22:03.326Z,23.40
2022-10-17T11:23:03.302Z,23.43
2022-10-17T11:24:06.786Z,23.37
2022-10-17T11:25:03.422Z,23.40
2022-10-17T11:26:03.517Z,23.37
2022-10-17T11:27:02.925Z,23.40
2022-10-17T11:28:05.186Z,23.42
2022-10-17T11:29:03.404Z,23.38
2022-10-17T11:30:03.462Z,23.41
2022-10-17T11:31:07.096Z,23.43
2022-10-17T11:32:03.847Z,23.48
2022-10-17T11:33:03.161Z,23.50
2022-10-17T11:34:03.148Z,23.52
2022-10-17T11:35:03.422Z,23.56
2022-10-17T11:36:03.064Z,23.57
2022-10-17T11:37:03.190Z,23.58
2022-10-17T11:38:03.304Z,23.60
2022-10-17T11:39:03.379Z,23.58
2022-10-17T11:40:03.504Z,23.59
2022-10-17T11:41:03.569Z,23.58
2022-10-17T11:42:04.359Z,23.62
2022-10-17T11:43:02.756Z,23.61
2022-10-17T11:44:02.697Z,23.59
2022-10-17T11:45:02.806Z,23.61
2022-10-17T11:46:02.809Z,23.65
2022-10-17T11:47:02.745Z,23.69
2022-10-17T11:48:03.449Z,23.72
2022-10-17T11:49:03.601Z,23.66
2022-10-17T11:52:03.573Z,23.73
2022-10-17T11:53:03.719Z,23.75
2022-10-17T11:54:03.010Z,23.80
2022-10-17T11:55:03.090Z,23.76
2022-10-17T11:56:02.920Z,23.79
2022-10-17T11:57:02.620Z,23.80
2022-10-17T11:58:02.800Z,23.84
2022-10-17T11:59:03.250Z,23.86
2022-10-17T12:00:02.824Z,23.85
2022-10-17T12:01:02.814Z,23.85
2022-10-17T12:02:02.786Z,23.83
2022-10-17T12:03:02.458Z,23.82
2022-10-17T12:04:02.088Z,23.81
2022-10-17T12:05:02.168Z,23.78
2022-10-17T12:06:02.131Z,23.74
2022-10-17T12:07:02.252Z,23.77
2022-10-17T12:08:02.839Z,23.79
2022-10-17T12:09:02.953Z,23.75
2022-10-17T12:10:02.732Z,23.73
2022-10-17T12:11:02.410Z,23.75
2022-10-17T12:12:02.608Z,23.75
2022-10-17T12:13:01.934Z,23.79
2022-10-17T12:14:05.929Z,23.81
2022-10-17T12:15:02.046Z,23.84
2022-10-17T12:16:02.062Z,23.87
2022-10-17T12:17:02.179Z,23.86
2022-10-17T12:18:02.763Z,23.83
2022-10-17T12:19:02.618Z,23.82
2022-10-17T12:20:02.712Z,23.84
2022-10-17T12:21:02.744Z,23.86
2022-10-17T12:22:02.389Z,23.90
2022-10-17T12:23:02.495Z,23.93
2022-10-17T12:24:02.647Z,23.95
2022-10-17T12:25:02.691Z,23.97
2022-10-17T12:26:04.742Z,23.98
2022-10-17T12:27:02.423Z,23.99
2022-10-17T12:28:02.529Z,24.02
2022-10-17T12:29:02.641Z,24.08
2022-10-17T12:30:02.661Z,24.11
2022-10-17T12:31:03.073Z,24.11
2022-10-17T12:32:02.927Z,24.16
2022-10-17T12:33:07.055Z,24.18
2022-10-17T12:34:02.088Z,24.21
2022-10-17T12:35:02.483Z,24.24
2022-10-17T12:36:02.633Z,24.25
2022-10-17T12:37:02.567Z,24.27
2022-10-17T12:38:02.837Z,24.28
2022-10-17T12:39:02.673Z,24.28
2022-10-17T12:40:02.727Z,24.29
2022-10-17T12:41:02.865Z,24.30
2022-10-17T12:42:02.567Z,24.33
2022-10-17T12:43:03.179Z,24.36
2022-10-17T12:44:02.782Z,24.35
2022-10-17T12:45:02.822Z,24.33
2022-10-17T12:46:02.837Z,24.31
2022-10-17T12:47:02.922Z,24.31
2022-10-17T12:48:02.123Z,24.30
2022-10-17T12:49:02.343Z,24.26
2022-10-17T12:50:02.419Z,24.20
2022-10-17T12:51:34.948Z,24.15
2022-10-17T12:52:02.473Z,24.16
2022-10-17T12:53:02.653Z,24.18
2022-10-17T12:54:02.840Z,24.23
2022-10-17T12:55:16.767Z,24.25
2022-10-17T12:56:03.004Z,24.25
2022-10-17T12:57:02.882Z,24.23
2022-10-17T12:58:02.915Z,24.27
2022-10-17T12:59:03.070Z,24.31
2022-10-17T13:00:03.097Z,24.33
2022-10-17T13:01:23.200Z,24.34